sensor_id;sensor_type;location;lat;lon;timestamp;P1;durP1;ratioP1;P2;durP2;ratioP2
75283;SDS011;63877;48.702;44.594;2022-10-30T00:01:37;1.63;;;1.52;;
75283;SDS011;63877;48.702;44.594;2022-10-30T00:04:03;3.17;;;2.78;;
75283;SDS011;63877;48.702;44.594;2022-10-30T00:06:29;6.25;;;3.53;;
75283;SDS011;63877;48.702;44.594;2022-10-30T00:08:55;7.57;;;5.47;;
75283;SDS011;63877;48.702;44.594;2022-10-30T00:11:21;8.27;;;3.20;;
75283;SDS011;63877;48.702;44.594;2022-10-30T00:13:47;5.22;;;2.42;;
75283;SDS011;63877;48.702;44.594;2022-10-30T00:16:13;3.10;;;2.75;;
75283;SDS011;63877;48.702;44.594;2022-10-30T00:18:39;5.07;;;4.60;;
75283;SDS011;63877;48.702;44.594;2022-10-30T00:21:10;2.58;;;2.28;;
75283;SDS011;63877;48.702;44.594;2022-10-30T00:23:37;2.97;;;2.55;;
75283;SDS011;63877;48.702;44.594;2022-10-30T00:26:05;3.35;;;2.22;;
75283;SDS011;63877;48.702;44.594;2022-10-30T00:28:32;2.30;;;1.83;;
75283;SDS011;63877;48.702;44.594;2022-10-30T00:31:01;0.93;;;0.93;;
75283;SDS011;63877;48.702;44.594;2022-10-30T00:33:28;4.97;;;2.97;;
75283;SDS011;63877;48.702;44.594;2022-10-30T00:35:55;2.08;;;1.75;;
75283;SDS011;63877;48.702;44.594;2022-10-30T00:38:21;3.45;;;1.65;;
75283;SDS011;63877;48.702;44.594;2022-10-30T00:40:48;0.60;;;0.60;;
75283;SDS011;63877;48.702;44.594;2022-10-30T00:48:57;5.07;;;4.00;;
75283;SDS011;63877;48.702;44.594;2022-10-30T00:51:46;1.17;;;1.08;;
75283;SDS011;63877;48.702;44.594;2022-10-30T00:54:16;3.88;;;1.42;;
75283;SDS011;63877;48.702;44.594;2022-10-30T00:56:43;4.68;;;2.78;;
75283;SDS011;63877;48.702;44.594;2022-10-30T00:59:12;5.03;;;3.38;;
75283;SDS011;63877;48.702;44.594;2022-10-30T01:01:42;2.20;;;0.98;;
75283;SDS011;63877;48.702;44.594;2022-10-30T01:04:10;1.83;;;1.73;;
75283;SDS011;63877;48.702;44.594;2022-10-30T01:06:38;7.63;;;3.90;;
75283;SDS011;63877;48.702;44.594;2022-10-30T01:09:09;5.30;;;3.40;;
75283;SDS011;63877;48.702;44.594;2022-10-30T01:11:34;2.72;;;1.23;;
75283;SDS011;63877;48.702;44.594;2022-10-30T01:14:03;8.38;;;2.90;;
75283;SDS011;63877;48.702;44.594;2022-10-30T01:21:55;1.17;;;0.80;;
75283;SDS011;63877;48.702;44.594;2022-10-30T01:27:29;0.32;;;0.30;;
75283;SDS011;63877;48.702;44.594;2022-10-30T01:38:33;2.33;;;1.40;;
75283;SDS011;63877;48.702;44.594;2022-10-30T01:41:04;9.65;;;4.60;;
75283;SDS011;63877;48.702;44.594;2022-10-30T01:43:30;5.07;;;1.17;;
75283;SDS011;63877;48.702;44.594;2022-10-30T01:59:58;2.95;;;1.85;;
75283;SDS011;63877;48.702;44.594;2022-10-30T02:02:38;5.68;;;3.88;;
75283;SDS011;63877;48.702;44.594;2022-10-30T02:05:06;24.33;;;6.93;;
75283;SDS011;63877;48.702;44.594;2022-10-30T02:07:36;5.47;;;2.45;;
75283;SDS011;63877;48.702;44.594;2022-10-30T02:10:04;12.13;;;4.13;;
75283;SDS011;63877;48.702;44.594;2022-10-30T02:12:31;3.00;;;1.60;;
75283;SDS011;63877;48.702;44.594;2022-10-30T02:14:57;5.45;;;4.80;;
75283;SDS011;63877;48.702;44.594;2022-10-30T02:17:25;3.05;;;2.00;;
75283;SDS011;63877;48.702;44.594;2022-10-30T02:19:52;3.15;;;2.05;;
75283;SDS011;63877;48.702;44.594;2022-10-30T02:22:18;3.47;;;0.77;;
75283;SDS011;63877;48.702;44.594;2022-10-30T02:24:44;8.23;;;1.35;;
75283;SDS011;63877;48.702;44.594;2022-10-30T02:27:10;1.80;;;0.57;;
75283;SDS011;63877;48.702;44.594;2022-10-30T02:29:38;4.57;;;4.13;;
75283;SDS011;63877;48.702;44.594;2022-10-30T02:32:05;2.55;;;0.80;;
75283;SDS011;63877;48.702;44.594;2022-10-30T02:34:33;4.07;;;1.98;;
75283;SDS011;63877;48.702;44.594;2022-10-30T02:37:00;13.60;;;7.55;;
75283;SDS011;63877;48.702;44.594;2022-10-30T02:39:26;8.65;;;4.13;;
75283;SDS011;63877;48.702;44.594;2022-10-30T02:41:53;6.05;;;3.58;;
75283;SDS011;63877;48.702;44.594;2022-10-30T02:44:20;10.13;;;5.22;;
75283;SDS011;63877;48.702;44.594;2022-10-30T02:46:46;5.50;;;2.30;;
75283;SDS011;63877;48.702;44.594;2022-10-30T02:49:12;4.70;;;2.30;;
75283;SDS011;63877;48.702;44.594;2022-10-30T02:51:38;2.33;;;1.80;;
75283;SDS011;63877;48.702;44.594;2022-10-30T02:54:04;6.22;;;2.05;;
75283;SDS011;63877;48.702;44.594;2022-10-30T02:56:30;2.00;;;1.23;;
75283;SDS011;63877;48.702;44.594;2022-10-30T02:58:58;4.72;;;1.40;;
75283;SDS011;63877;48.702;44.594;2022-10-30T03:01:24;7.70;;;3.47;;
75283;SDS011;63877;48.702;44.594;2022-10-30T03:03:53;5.00;;;1.98;;
75283;SDS011;63877;48.702;44.594;2022-10-30T03:06:21;2.47;;;0.73;;
75283;SDS011;63877;48.702;44.594;2022-10-30T03:08:49;1.00;;;1.00;;
75283;SDS011;63877;48.702;44.594;2022-10-30T03:11:16;6.25;;;1.80;;
75283;SDS011;63877;48.702;44.594;2022-10-30T03:13:45;5.55;;;3.25;;
75283;SDS011;63877;48.702;44.594;2022-10-30T03:16:13;5.50;;;2.95;;
75283;SDS011;63877;48.702;44.594;2022-10-30T03:18:44;2.40;;;1.73;;
75283;SDS011;63877;48.702;44.594;2022-10-30T03:21:12;6.95;;;3.30;;
75283;SDS011;63877;48.702;44.594;2022-10-30T03:23:39;3.03;;;1.30;;
75283;SDS011;63877;48.702;44.594;2022-10-30T03:26:05;1.67;;;1.25;;
75283;SDS011;63877;48.702;44.594;2022-10-30T03:28:35;1.15;;;0.85;;
75283;SDS011;63877;48.702;44.594;2022-10-30T03:33:30;6.45;;;3.53;;
75283;SDS011;63877;48.702;44.594;2022-10-30T03:35:56;8.60;;;4.90;;
75283;SDS011;63877;48.702;44.594;2022-10-30T03:38:23;6.15;;;2.60;;
75283;SDS011;63877;48.702;44.594;2022-10-30T03:40:49;9.60;;;3.60;;
75283;SDS011;63877;48.702;44.594;2022-10-30T03:43:16;4.90;;;1.00;;
75283;SDS011;63877;48.702;44.594;2022-10-30T03:45:49;1.73;;;1.20;;
75283;SDS011;63877;48.702;44.594;2022-10-30T03:48:17;6.93;;;2.15;;
75283;SDS011;63877;48.702;44.594;2022-10-30T03:50:44;5.38;;;1.52;;
75283;SDS011;63877;48.702;44.594;2022-10-30T03:53:11;6.68;;;2.78;;
75283;SDS011;63877;48.702;44.594;2022-10-30T03:55:38;5.38;;;3.33;;
75283;SDS011;63877;48.702;44.594;2022-10-30T03:58:05;1.55;;;0.95;;
75283;SDS011;63877;48.702;44.594;2022-10-30T04:00:33;2.45;;;1.10;;
75283;SDS011;63877;48.702;44.594;2022-10-30T04:03:04;3.10;;;2.28;;
75283;SDS011;63877;48.702;44.594;2022-10-30T04:05:32;2.85;;;2.13;;
75283;SDS011;63877;48.702;44.594;2022-10-30T04:07:59;1.02;;;1.00;;
75283;SDS011;63877;48.702;44.594;2022-10-30T04:10:30;7.00;;;3.47;;
75283;SDS011;63877;48.702;44.594;2022-10-30T04:13:00;13.65;;;5.13;;
75283;SDS011;63877;48.702;44.594;2022-10-30T04:15:27;4.13;;;2.13;;
75283;SDS011;63877;48.702;44.594;2022-10-30T04:17:53;9.48;;;4.38;;
75283;SDS011;63877;48.702;44.594;2022-10-30T04:20:20;10.82;;;2.50;;
75283;SDS011;63877;48.702;44.594;2022-10-30T04:22:47;3.80;;;3.60;;
75283;SDS011;63877;48.702;44.594;2022-10-30T04:25:18;2.72;;;0.98;;
75283;SDS011;63877;48.702;44.594;2022-10-30T04:27:47;2.22;;;1.70;;
75283;SDS011;63877;48.702;44.594;2022-10-30T04:30:13;5.00;;;3.20;;
75283;SDS011;63877;48.702;44.594;2022-10-30T04:32:49;2.05;;;1.52;;
75283;SDS011;63877;48.702;44.594;2022-10-30T04:35:17;10.68;;;4.50;;
75283;SDS011;63877;48.702;44.594;2022-10-30T04:37:58;4.82;;;2.83;;
75283;SDS011;63877;48.702;44.594;2022-10-30T04:40:27;4.75;;;3.10;;
75283;SDS011;63877;48.702;44.594;2022-10-30T04:42:59;4.72;;;2.08;;
75283;SDS011;63877;48.702;44.594;2022-10-30T04:45:27;4.15;;;2.10;;
75283;SDS011;63877;48.702;44.594;2022-10-30T04:48:01;6.03;;;2.13;;
75283;SDS011;63877;48.702;44.594;2022-10-30T04:50:30;7.85;;;3.20;;
75283;SDS011;63877;48.702;44.594;2022-10-30T04:52:58;2.53;;;1.05;;
75283;SDS011;63877;48.702;44.594;2022-10-30T04:55:29;4.68;;;2.10;;
75283;SDS011;63877;48.702;44.594;2022-10-30T04:57:56;3.28;;;2.03;;
75283;SDS011;63877;48.702;44.594;2022-10-30T05:00:30;1.70;;;1.35;;
75283;SDS011;63877;48.702;44.594;2022-10-30T05:03:05;5.22;;;2.45;;
75283;SDS011;63877;48.702;44.594;2022-10-30T05:05:31;2.95;;;1.92;;
75283;SDS011;63877;48.702;44.594;2022-10-30T05:07:57;5.55;;;3.63;;
75283;SDS011;63877;48.702;44.594;2022-10-30T05:10:23;3.53;;;2.00;;
75283;SDS011;63877;48.702;44.594;2022-10-30T05:12:51;2.45;;;1.92;;
75283;SDS011;63877;48.702;44.594;2022-10-30T05:15:20;5.63;;;3.25;;
75283;SDS011;63877;48.702;44.594;2022-10-30T05:17:49;5.80;;;2.90;;
75283;SDS011;63877;48.702;44.594;2022-10-30T05:20:17;7.70;;;3.15;;
75283;SDS011;63877;48.702;44.594;2022-10-30T05:22:43;7.82;;;3.30;;
75283;SDS011;63877;48.702;44.594;2022-10-30T05:25:09;4.85;;;2.28;;
75283;SDS011;63877;48.702;44.594;2022-10-30T05:27:35;3.95;;;2.55;;
75283;SDS011;63877;48.702;44.594;2022-10-30T05:30:01;11.10;;;4.05;;
75283;SDS011;63877;48.702;44.594;2022-10-30T05:32:27;1.50;;;1.40;;
75283;SDS011;63877;48.702;44.594;2022-10-30T05:34:53;6.38;;;2.50;;
75283;SDS011;63877;48.702;44.594;2022-10-30T05:37:21;4.07;;;2.63;;
75283;SDS011;63877;48.702;44.594;2022-10-30T05:39:47;3.38;;;1.48;;
75283;SDS011;63877;48.702;44.594;2022-10-30T05:42:24;7.78;;;2.50;;
75283;SDS011;63877;48.702;44.594;2022-10-30T05:44:51;5.43;;;3.08;;
75283;SDS011;63877;48.702;44.594;2022-10-30T05:47:17;3.20;;;2.55;;
75283;SDS011;63877;48.702;44.594;2022-10-30T05:49:48;4.72;;;2.55;;
75283;SDS011;63877;48.702;44.594;2022-10-30T05:52:18;5.47;;;2.92;;
75283;SDS011;63877;48.702;44.594;2022-10-30T05:54:44;5.07;;;2.83;;
75283;SDS011;63877;48.702;44.594;2022-10-30T05:57:30;5.40;;;2.67;;
75283;SDS011;63877;48.702;44.594;2022-10-30T05:59:57;7.43;;;4.38;;
75283;SDS011;63877;48.702;44.594;2022-10-30T06:02:23;3.30;;;2.10;;
75283;SDS011;63877;48.702;44.594;2022-10-30T06:04:50;6.18;;;3.90;;
75283;SDS011;63877;48.702;44.594;2022-10-30T06:07:17;4.75;;;4.30;;
75283;SDS011;63877;48.702;44.594;2022-10-30T06:09:43;2.33;;;1.55;;
75283;SDS011;63877;48.702;44.594;2022-10-30T06:12:24;6.18;;;4.00;;
75283;SDS011;63877;48.702;44.594;2022-10-30T06:15:03;4.22;;;2.08;;
75283;SDS011;63877;48.702;44.594;2022-10-30T06:17:29;4.65;;;2.28;;
75283;SDS011;63877;48.702;44.594;2022-10-30T06:20:12;9.25;;;5.80;;
75283;SDS011;63877;48.702;44.594;2022-10-30T06:23:02;4.68;;;3.03;;
75283;SDS011;63877;48.702;44.594;2022-10-30T06:25:40;7.07;;;3.35;;
75283;SDS011;63877;48.702;44.594;2022-10-30T06:28:19;8.63;;;3.78;;
75283;SDS011;63877;48.702;44.594;2022-10-30T06:30:45;6.80;;;3.25;;
75283;SDS011;63877;48.702;44.594;2022-10-30T06:33:11;7.50;;;3.88;;
75283;SDS011;63877;48.702;44.594;2022-10-30T06:35:42;12.00;;;5.85;;
75283;SDS011;63877;48.702;44.594;2022-10-30T06:38:09;13.93;;;6.43;;
75283;SDS011;63877;48.702;44.594;2022-10-30T06:40:36;8.00;;;4.63;;
75283;SDS011;63877;48.702;44.594;2022-10-30T06:43:16;5.05;;;1.92;;
75283;SDS011;63877;48.702;44.594;2022-10-30T06:45:49;7.53;;;4.63;;
75283;SDS011;63877;48.702;44.594;2022-10-30T06:48:15;9.90;;;4.38;;
75283;SDS011;63877;48.702;44.594;2022-10-30T06:50:52;6.28;;;2.92;;
75283;SDS011;63877;48.702;44.594;2022-10-30T06:53:22;6.95;;;4.05;;
75283;SDS011;63877;48.702;44.594;2022-10-30T06:55:56;6.68;;;2.22;;
75283;SDS011;63877;48.702;44.594;2022-10-30T06:58:39;7.95;;;2.50;;
75283;SDS011;63877;48.702;44.594;2022-10-30T07:01:09;8.63;;;3.10;;
75283;SDS011;63877;48.702;44.594;2022-10-30T07:03:55;9.15;;;4.28;;
75283;SDS011;63877;48.702;44.594;2022-10-30T07:06:22;8.20;;;4.05;;
75283;SDS011;63877;48.702;44.594;2022-10-30T07:08:47;5.50;;;3.75;;
75283;SDS011;63877;48.702;44.594;2022-10-30T07:11:14;6.28;;;3.65;;
75283;SDS011;63877;48.702;44.594;2022-10-30T07:16:43;7.78;;;3.63;;
75283;SDS011;63877;48.702;44.594;2022-10-30T07:19:09;6.10;;;3.10;;
75283;SDS011;63877;48.702;44.594;2022-10-30T07:21:36;6.88;;;4.10;;
75283;SDS011;63877;48.702;44.594;2022-10-30T07:24:04;5.47;;;2.95;;
75283;SDS011;63877;48.702;44.594;2022-10-30T07:26:41;7.43;;;3.10;;
75283;SDS011;63877;48.702;44.594;2022-10-30T07:29:27;3.60;;;2.33;;
75283;SDS011;63877;48.702;44.594;2022-10-30T07:32:29;2.33;;;1.48;;
75283;SDS011;63877;48.702;44.594;2022-10-30T07:35:27;2.92;;;1.65;;
75283;SDS011;63877;48.702;44.594;2022-10-30T07:38:13;4.85;;;2.50;;
75283;SDS011;63877;48.702;44.594;2022-10-30T07:40:59;4.57;;;2.88;;
75283;SDS011;63877;48.702;44.594;2022-10-30T07:46:45;5.72;;;4.28;;
75283;SDS011;63877;48.702;44.594;2022-10-30T07:49:29;3.63;;;2.85;;
75283;SDS011;63877;48.702;44.594;2022-10-30T07:51:57;5.13;;;3.33;;
75283;SDS011;63877;48.702;44.594;2022-10-30T07:54:23;6.68;;;3.00;;
75283;SDS011;63877;48.702;44.594;2022-10-30T07:56:50;3.42;;;1.85;;
75283;SDS011;63877;48.702;44.594;2022-10-30T07:59:19;1.58;;;1.42;;
75283;SDS011;63877;48.702;44.594;2022-10-30T08:02:12;3.28;;;1.98;;
75283;SDS011;63877;48.702;44.594;2022-10-30T08:05:11;3.75;;;2.05;;
75283;SDS011;63877;48.702;44.594;2022-10-30T08:07:56;0.30;;;0.30;;
75283;SDS011;63877;48.702;44.594;2022-10-30T08:10:23;5.28;;;3.00;;
75283;SDS011;63877;48.702;44.594;2022-10-30T08:12:49;2.58;;;1.92;;
75283;SDS011;63877;48.702;44.594;2022-10-30T08:15:15;4.65;;;1.73;;
75283;SDS011;63877;48.702;44.594;2022-10-30T08:17:42;4.90;;;2.67;;
75283;SDS011;63877;48.702;44.594;2022-10-30T08:20:10;5.80;;;3.15;;
75283;SDS011;63877;48.702;44.594;2022-10-30T08:22:50;2.58;;;2.08;;
75283;SDS011;63877;48.702;44.594;2022-10-30T08:25:23;5.40;;;2.10;;
75283;SDS011;63877;48.702;44.594;2022-10-30T08:30:28;5.70;;;3.13;;
75283;SDS011;63877;48.702;44.594;2022-10-30T08:32:57;3.60;;;2.78;;
75283;SDS011;63877;48.702;44.594;2022-10-30T08:36:15;2.80;;;1.50;;
75283;SDS011;63877;48.702;44.594;2022-10-30T08:38:34;10.45;;;4.75;;
75283;SDS011;63877;48.702;44.594;2022-10-30T08:41:26;3.25;;;1.42;;
75283;SDS011;63877;48.702;44.594;2022-10-30T08:44:10;1.98;;;1.10;;
75283;SDS011;63877;48.702;44.594;2022-10-30T08:46:55;3.30;;;1.77;;
75283;SDS011;63877;48.702;44.594;2022-10-30T08:49:22;5.88;;;3.22;;
75283;SDS011;63877;48.702;44.594;2022-10-30T08:51:52;2.88;;;1.40;;
75283;SDS011;63877;48.702;44.594;2022-10-30T08:54:36;4.63;;;2.65;;
75283;SDS011;63877;48.702;44.594;2022-10-30T08:57:03;2.03;;;1.33;;
75283;SDS011;63877;48.702;44.594;2022-10-30T08:59:47;4.78;;;2.15;;
75283;SDS011;63877;48.702;44.594;2022-10-30T09:02:34;8.93;;;2.67;;
75283;SDS011;63877;48.702;44.594;2022-10-30T09:05:20;2.47;;;1.60;;
75283;SDS011;63877;48.702;44.594;2022-10-30T09:08:04;1.10;;;0.98;;
75283;SDS011;63877;48.702;44.594;2022-10-30T09:10:57;3.50;;;2.30;;
75283;SDS011;63877;48.702;44.594;2022-10-30T09:13:24;1.80;;;0.82;;
75283;SDS011;63877;48.702;44.594;2022-10-30T09:15:52;2.25;;;1.58;;
75283;SDS011;63877;48.702;44.594;2022-10-30T09:18:18;2.42;;;1.45;;
75283;SDS011;63877;48.702;44.594;2022-10-30T09:20:46;3.90;;;3.45;;
75283;SDS011;63877;48.702;44.594;2022-10-30T09:23:13;1.92;;;1.40;;
75283;SDS011;63877;48.702;44.594;2022-10-30T09:25:39;2.40;;;1.20;;
75283;SDS011;63877;48.702;44.594;2022-10-30T09:28:12;1.38;;;0.70;;
75283;SDS011;63877;48.702;44.594;2022-10-30T09:31:07;4.55;;;2.63;;
75283;SDS011;63877;48.702;44.594;2022-10-30T09:33:51;6.30;;;3.03;;
75283;SDS011;63877;48.702;44.594;2022-10-30T09:36:36;2.20;;;1.58;;
75283;SDS011;63877;48.702;44.594;2022-10-30T09:39:02;7.95;;;4.47;;
75283;SDS011;63877;48.702;44.594;2022-10-30T09:47:30;5.47;;;3.75;;
75283;SDS011;63877;48.702;44.594;2022-10-30T09:59:11;8.43;;;4.85;;
75283;SDS011;63877;48.702;44.594;2022-10-30T10:01:48;5.20;;;2.72;;
75283;SDS011;63877;48.702;44.594;2022-10-30T10:04:27;2.88;;;2.03;;
75283;SDS011;63877;48.702;44.594;2022-10-30T10:07:24;7.03;;;3.75;;
75283;SDS011;63877;48.702;44.594;2022-10-30T10:10:00;7.00;;;4.57;;
75283;SDS011;63877;48.702;44.594;2022-10-30T10:12:39;4.78;;;2.63;;
75283;SDS011;63877;48.702;44.594;2022-10-30T10:15:21;5.72;;;3.65;;
75283;SDS011;63877;48.702;44.594;2022-10-30T10:17:53;4.10;;;2.97;;
75283;SDS011;63877;48.702;44.594;2022-10-30T10:20:39;4.03;;;2.40;;
75283;SDS011;63877;48.702;44.594;2022-10-30T10:23:13;4.78;;;2.63;;
75283;SDS011;63877;48.702;44.594;2022-10-30T10:25:43;4.30;;;2.42;;
75283;SDS011;63877;48.702;44.594;2022-10-30T10:31:11;2.95;;;1.45;;
75283;SDS011;63877;48.702;44.594;2022-10-30T10:34:13;3.38;;;1.25;;
75283;SDS011;63877;48.702;44.594;2022-10-30T10:37:01;5.15;;;2.45;;
75283;SDS011;63877;48.702;44.594;2022-10-30T10:42:38;4.68;;;2.30;;
75283;SDS011;63877;48.702;44.594;2022-10-30T10:45:20;4.88;;;3.30;;
75283;SDS011;63877;48.702;44.594;2022-10-30T10:50:24;2.78;;;1.40;;
75283;SDS011;63877;48.702;44.594;2022-10-30T10:55:30;2.47;;;1.52;;
75283;SDS011;63877;48.702;44.594;2022-10-30T10:58:05;3.17;;;1.80;;
75283;SDS011;63877;48.702;44.594;2022-10-30T11:00:50;7.05;;;2.75;;
75283;SDS011;63877;48.702;44.594;2022-10-30T11:03:22;4.22;;;2.00;;
75283;SDS011;63877;48.702;44.594;2022-10-30T11:05:51;4.60;;;2.47;;
75283;SDS011;63877;48.702;44.594;2022-10-30T11:13:38;3.63;;;2.08;;
75283;SDS011;63877;48.702;44.594;2022-10-30T11:16:16;6.93;;;3.92;;
75283;SDS011;63877;48.702;44.594;2022-10-30T11:18:51;3.22;;;2.17;;
75283;SDS011;63877;48.702;44.594;2022-10-30T11:21:24;5.43;;;2.85;;
75283;SDS011;63877;48.702;44.594;2022-10-30T11:26:55;6.40;;;3.42;;
75283;SDS011;63877;48.702;44.594;2022-10-30T11:29:46;3.10;;;1.90;;
75283;SDS011;63877;48.702;44.594;2022-10-30T11:32:18;0.90;;;0.40;;
75283;SDS011;63877;48.702;44.594;2022-10-30T11:34:59;3.63;;;2.67;;
75283;SDS011;63877;48.702;44.594;2022-10-30T11:37:44;5.63;;;2.45;;
75283;SDS011;63877;48.702;44.594;2022-10-30T11:43:20;1.45;;;1.30;;
75283;SDS011;63877;48.702;44.594;2022-10-30T11:45:49;5.38;;;3.20;;
75283;SDS011;63877;48.702;44.594;2022-10-30T11:48:21;3.53;;;2.17;;
75283;SDS011;63877;48.702;44.594;2022-10-30T11:50:48;3.30;;;1.75;;
75283;SDS011;63877;48.702;44.594;2022-10-30T11:53:23;2.00;;;1.33;;
75283;SDS011;63877;48.702;44.594;2022-10-30T11:56:15;4.70;;;3.15;;
75283;SDS011;63877;48.702;44.594;2022-10-30T12:01:16;3.88;;;2.47;;
75283;SDS011;63877;48.702;44.594;2022-10-30T12:07:31;3.95;;;2.40;;
75283;SDS011;63877;48.702;44.594;2022-10-30T12:09:58;4.38;;;1.92;;
75283;SDS011;63877;48.702;44.594;2022-10-30T12:12:42;4.28;;;2.80;;
75283;SDS011;63877;48.702;44.594;2022-10-30T12:15:09;3.90;;;2.08;;
75283;SDS011;63877;48.702;44.594;2022-10-30T12:17:49;2.25;;;1.27;;
75283;SDS011;63877;48.702;44.594;2022-10-30T12:20:36;3.28;;;1.50;;
75283;SDS011;63877;48.702;44.594;2022-10-30T12:23:08;2.63;;;2.42;;
75283;SDS011;63877;48.702;44.594;2022-10-30T12:25:35;1.75;;;0.88;;
75283;SDS011;63877;48.702;44.594;2022-10-30T12:28:05;2.67;;;1.98;;
75283;SDS011;63877;48.702;44.594;2022-10-30T12:30:39;0.73;;;0.65;;
75283;SDS011;63877;48.702;44.594;2022-10-30T12:33:19;1.48;;;1.10;;
75283;SDS011;63877;48.702;44.594;2022-10-30T12:36:09;2.20;;;0.93;;
75283;SDS011;63877;48.702;44.594;2022-10-30T12:49:38;3.45;;;1.25;;
75283;SDS011;63877;48.702;44.594;2022-10-30T12:52:32;1.10;;;0.93;;
75283;SDS011;63877;48.702;44.594;2022-10-30T12:55:21;0.28;;;0.22;;
75283;SDS011;63877;48.702;44.594;2022-10-30T12:58:02;1.17;;;0.95;;
75283;SDS011;63877;48.702;44.594;2022-10-30T13:00:53;4.35;;;1.98;;
75283;SDS011;63877;48.702;44.594;2022-10-30T13:03:28;3.70;;;1.73;;
75283;SDS011;63877;48.702;44.594;2022-10-30T13:06:04;6.95;;;2.10;;
75283;SDS011;63877;48.702;44.594;2022-10-30T13:08:49;2.92;;;2.25;;
75283;SDS011;63877;48.702;44.594;2022-10-30T13:17:27;4.13;;;1.98;;
75283;SDS011;63877;48.702;44.594;2022-10-30T13:19:53;2.47;;;1.85;;
75283;SDS011;63877;48.702;44.594;2022-10-30T13:27:37;2.17;;;1.38;;
75283;SDS011;63877;48.702;44.594;2022-10-30T13:41:24;4.20;;;3.03;;
75283;SDS011;63877;48.702;44.594;2022-10-30T13:52:28;8.68;;;3.30;;
75283;SDS011;63877;48.702;44.594;2022-10-30T13:55:01;4.03;;;1.80;;
75283;SDS011;63877;48.702;44.594;2022-10-30T13:57:43;0.98;;;0.60;;
75283;SDS011;63877;48.702;44.594;2022-10-30T14:00:21;2.15;;;0.98;;
75283;SDS011;63877;48.702;44.594;2022-10-30T14:03:02;2.67;;;0.98;;
75283;SDS011;63877;48.702;44.594;2022-10-30T14:10:58;3.63;;;1.50;;
75283;SDS011;63877;48.702;44.594;2022-10-30T14:13:26;2.22;;;1.40;;
75283;SDS011;63877;48.702;44.594;2022-10-30T14:19:05;6.45;;;2.67;;
75283;SDS011;63877;48.702;44.594;2022-10-30T14:24:21;2.40;;;1.60;;
75283;SDS011;63877;48.702;44.594;2022-10-30T14:27:07;7.30;;;2.88;;
75283;SDS011;63877;48.702;44.594;2022-10-30T14:29:45;2.42;;;0.85;;
75283;SDS011;63877;48.702;44.594;2022-10-30T14:39:47;5.38;;;2.17;;
75283;SDS011;63877;48.702;44.594;2022-10-30T14:42:24;7.07;;;3.90;;
75283;SDS011;63877;48.702;44.594;2022-10-30T14:53:36;7.85;;;5.10;;
75283;SDS011;63877;48.702;44.594;2022-10-30T14:56:06;16.73;;;9.60;;
75283;SDS011;63877;48.702;44.594;2022-10-30T14:58:44;4.25;;;2.92;;
75283;SDS011;63877;48.702;44.594;2022-10-30T15:15:00;9.35;;;6.90;;
75283;SDS011;63877;48.702;44.594;2022-10-30T15:17:32;10.68;;;5.43;;
75283;SDS011;63877;48.702;44.594;2022-10-30T15:20:04;4.22;;;3.50;;
75283;SDS011;63877;48.702;44.594;2022-10-30T15:22:43;8.52;;;5.60;;
75283;SDS011;63877;48.702;44.594;2022-10-30T15:25:17;20.83;;;9.38;;
75283;SDS011;63877;48.702;44.594;2022-10-30T15:27:45;15.57;;;9.75;;
75283;SDS011;63877;48.702;44.594;2022-10-30T15:30:18;13.85;;;6.75;;
75283;SDS011;63877;48.702;44.594;2022-10-30T15:32:46;19.38;;;9.65;;
75283;SDS011;63877;48.702;44.594;2022-10-30T15:35:19;21.00;;;7.35;;
75283;SDS011;63877;48.702;44.594;2022-10-30T15:40:30;10.60;;;5.90;;
75283;SDS011;63877;48.702;44.594;2022-10-30T15:42:59;17.13;;;10.15;;
75283;SDS011;63877;48.702;44.594;2022-10-30T15:45:34;23.38;;;11.73;;
75283;SDS011;63877;48.702;44.594;2022-10-30T15:48:19;13.35;;;6.93;;
75283;SDS011;63877;48.702;44.594;2022-10-30T15:51:10;18.15;;;8.57;;
75283;SDS011;63877;48.702;44.594;2022-10-30T15:53:48;9.45;;;3.72;;
75283;SDS011;63877;48.702;44.594;2022-10-30T15:56:24;4.63;;;4.28;;
75283;SDS011;63877;48.702;44.594;2022-10-30T15:59:04;10.15;;;5.18;;
75283;SDS011;63877;48.702;44.594;2022-10-30T16:01:35;14.30;;;8.48;;
75283;SDS011;63877;48.702;44.594;2022-10-30T16:04:14;16.70;;;10.68;;
75283;SDS011;63877;48.702;44.594;2022-10-30T16:06:52;11.32;;;4.93;;
75283;SDS011;63877;48.702;44.594;2022-10-30T16:09:20;18.33;;;9.30;;
75283;SDS011;63877;48.702;44.594;2022-10-30T16:11:47;17.08;;;5.30;;
75283;SDS011;63877;48.702;44.594;2022-10-30T16:14:15;11.77;;;5.85;;
75283;SDS011;63877;48.702;44.594;2022-10-30T16:16:47;8.13;;;4.25;;
75283;SDS011;63877;48.702;44.594;2022-10-30T16:19:17;3.45;;;3.05;;
75283;SDS011;63877;48.702;44.594;2022-10-30T16:21:45;9.85;;;7.28;;
75283;SDS011;63877;48.702;44.594;2022-10-30T16:24:12;3.65;;;3.03;;
75283;SDS011;63877;48.702;44.594;2022-10-30T16:26:41;9.27;;;5.63;;
75283;SDS011;63877;48.702;44.594;2022-10-30T16:31:42;17.17;;;7.07;;
75283;SDS011;63877;48.702;44.594;2022-10-30T16:37:19;13.30;;;5.53;;
75283;SDS011;63877;48.702;44.594;2022-10-30T16:39:48;15.25;;;8.00;;
75283;SDS011;63877;48.702;44.594;2022-10-30T16:42:22;16.33;;;8.15;;
75283;SDS011;63877;48.702;44.594;2022-10-30T16:44:49;7.45;;;4.53;;
75283;SDS011;63877;48.702;44.594;2022-10-30T16:49:42;4.25;;;2.95;;
75283;SDS011;63877;48.702;44.594;2022-10-30T16:52:25;6.15;;;4.35;;
75283;SDS011;63877;48.702;44.594;2022-10-30T16:57:40;17.13;;;5.03;;
75283;SDS011;63877;48.702;44.594;2022-10-30T17:00:18;24.02;;;9.13;;
75283;SDS011;63877;48.702;44.594;2022-10-30T17:02:46;14.27;;;8.05;;
75283;SDS011;63877;48.702;44.594;2022-10-30T17:07:54;14.85;;;7.43;;
75283;SDS011;63877;48.702;44.594;2022-10-30T17:10:32;4.97;;;4.50;;
75283;SDS011;63877;48.702;44.594;2022-10-30T17:18:38;4.82;;;4.07;;
75283;SDS011;63877;48.702;44.594;2022-10-30T17:21:09;12.27;;;6.18;;
75283;SDS011;63877;48.702;44.594;2022-10-30T17:23:49;9.25;;;4.57;;
75283;SDS011;63877;48.702;44.594;2022-10-30T17:26:17;3.47;;;2.67;;
75283;SDS011;63877;48.702;44.594;2022-10-30T17:28:44;12.40;;;7.45;;
75283;SDS011;63877;48.702;44.594;2022-10-30T17:33:39;9.45;;;3.67;;
75283;SDS011;63877;48.702;44.594;2022-10-30T17:36:05;15.50;;;7.22;;
75283;SDS011;63877;48.702;44.594;2022-10-30T17:38:33;7.13;;;3.95;;
75283;SDS011;63877;48.702;44.594;2022-10-30T17:40:59;9.35;;;5.57;;
75283;SDS011;63877;48.702;44.594;2022-10-30T17:43:30;27.60;;;9.15;;
75283;SDS011;63877;48.702;44.594;2022-10-30T17:45:57;15.18;;;7.32;;
75283;SDS011;63877;48.702;44.594;2022-10-30T17:48:24;6.32;;;5.18;;
75283;SDS011;63877;48.702;44.594;2022-10-30T17:50:52;27.02;;;11.55;;
75283;SDS011;63877;48.702;44.594;2022-10-30T17:53:20;16.73;;;9.00;;
75283;SDS011;63877;48.702;44.594;2022-10-30T17:55:48;14.55;;;6.95;;
75283;SDS011;63877;48.702;44.594;2022-10-30T17:58:34;21.10;;;8.05;;
75283;SDS011;63877;48.702;44.594;2022-10-30T18:00:59;26.92;;;11.48;;
75283;SDS011;63877;48.702;44.594;2022-10-30T18:03:25;18.13;;;8.20;;
75283;SDS011;63877;48.702;44.594;2022-10-30T18:05:52;16.67;;;6.50;;
75283;SDS011;63877;48.702;44.594;2022-10-30T18:08:19;11.65;;;7.32;;
75283;SDS011;63877;48.702;44.594;2022-10-30T18:10:46;15.95;;;6.80;;
75283;SDS011;63877;48.702;44.594;2022-10-30T18:13:12;17.25;;;8.23;;
75283;SDS011;63877;48.702;44.594;2022-10-30T18:15:40;13.65;;;7.43;;
75283;SDS011;63877;48.702;44.594;2022-10-30T18:18:09;26.48;;;11.45;;
75283;SDS011;63877;48.702;44.594;2022-10-30T18:20:35;17.40;;;9.55;;
75283;SDS011;63877;48.702;44.594;2022-10-30T18:23:03;12.50;;;7.25;;